This is the latest recevied weather packets stored in our database for station/object iz1wiy-2. If no packets are shown the sender has not sent any weather packets the latest 1 day(s).
| Time | Temp. | Humidity | Pressure | Rain* | Wind** | Luminosity | Snow |
|---|---|---|---|---|---|---|---|
| 1778085304 | 18.33° C | 78% | 1010 hPa | 0 mm | - | - | - |
| 1778084104 | 17.78° C | 79% | 1009.9 hPa | 0 mm | - | - | - |
| 1778083204 | 18.33° C | 80% | 1009.9 hPa | 0 mm | - | - | - |
| 1778067604 | 18.33° C | 82% | 1009.8 hPa | 0 mm | - | - | - |
| 1778061604 | 18.33° C | 84% | 1009.7 hPa | 0 mm | - | - | - |
| 1778060404 | 18.33° C | 85% | 1009.5 hPa | 0 mm | - | - | - |
| 1778058304 | 18.33° C | 85% | 1009.2 hPa | 0 mm | - | - | - |
| 1778058004 | 18.33° C | 85% | 1009.2 hPa | 0 mm | - | - | - |
| 1778056204 | 18.33° C | 86% | 1008.9 hPa | 0 mm | - | - | - |
| 1778054404 | 18.33° C | 87% | 1008.6 hPa | 0.25 mm | - | - | - |
| 1778050804 | 18.33° C | 86% | 1008.4 hPa | 0 mm | - | - | - |
| 1778046604 | 17.78° C | 86% | 1008.1 hPa | 10.92 mm | - | - | - |
| 1778045404 | 16.67° C | 86% | 1008 hPa | 10.41 mm | - | - | - |
| 1778043304 | 17.22° C | 86% | 1008.2 hPa | 1.52 mm | - | - | - |
| 1778039703 | 17.22° C | 86% | 1008.4 hPa | 0.76 mm | - | - | - |
| 1778034303 | 16.11° C | 85% | 1008.5 hPa | 2.29 mm | - | - | - |
| 1778032804 | 15.56° C | 85% | 1008.9 hPa | 3.81 mm | - | - | - |
| 1778031904 | 16.11° C | 85% | 1009.3 hPa | 2.79 mm | - | - | - |
| 1778030104 | 16.11° C | 85% | 1009.5 hPa | 0 mm | - | - | - |
| 1778028904 | 16.67° C | 85% | 1009.7 hPa | 0 mm | - | - | - |
| 1778022004 | 17.78° C | 80% | 1010.9 hPa | 0 mm | - | - | - |
| 1778018409 | 16.67° C | 81% | 1011.4 hPa | 0 mm | - | - | - |
| 1778004004 | 18.33° C | 79% | 1011.9 hPa | 0 mm | - | - | - |
* Rain latest hour (hover to see other rain measurements)
** Current wind speed in m/s (hover to see current wind gust speed)